sensor_id;sensor_type;location;lat;lon;timestamp;P1;durP1;ratioP1;P2;durP2;ratioP2
63095;SDS011;49184;55.596;37.770;2022-07-23T00:01:26;26.60;;;8.70;;
63095;SDS011;49184;55.596;37.770;2022-07-23T00:03:53;29.40;;;8.60;;
63095;SDS011;49184;55.596;37.770;2022-07-23T00:06:20;25.30;;;8.38;;
63095;SDS011;49184;55.596;37.770;2022-07-23T00:11:14;23.05;;;7.85;;
63095;SDS011;49184;55.596;37.770;2022-07-23T00:13:41;20.15;;;8.00;;
63095;SDS011;49184;55.596;37.770;2022-07-23T00:16:07;23.00;;;9.10;;
63095;SDS011;49184;55.596;37.770;2022-07-23T00:18:34;22.02;;;8.82;;
63095;SDS011;49184;55.596;37.770;2022-07-23T00:21:00;26.70;;;8.73;;
63095;SDS011;49184;55.596;37.770;2022-07-23T00:23:26;26.50;;;8.68;;
63095;SDS011;49184;55.596;37.770;2022-07-23T00:25:54;22.40;;;8.57;;
63095;SDS011;49184;55.596;37.770;2022-07-23T00:28:20;17.92;;;8.75;;
63095;SDS011;49184;55.596;37.770;2022-07-23T00:30:47;18.73;;;8.68;;
63095;SDS011;49184;55.596;37.770;2022-07-23T00:33:13;18.00;;;8.30;;
63095;SDS011;49184;55.596;37.770;2022-07-23T00:35:41;21.67;;;8.43;;
63095;SDS011;49184;55.596;37.770;2022-07-23T00:38:10;23.88;;;8.25;;
63095;SDS011;49184;55.596;37.770;2022-07-23T00:40:37;27.75;;;8.75;;
63095;SDS011;49184;55.596;37.770;2022-07-23T00:43:03;25.92;;;8.52;;
63095;SDS011;49184;55.596;37.770;2022-07-23T00:45:31;23.70;;;8.85;;
63095;SDS011;49184;55.596;37.770;2022-07-23T00:47:58;28.63;;;8.38;;
63095;SDS011;49184;55.596;37.770;2022-07-23T00:50:25;17.10;;;7.97;;
63095;SDS011;49184;55.596;37.770;2022-07-23T00:52:52;28.55;;;8.90;;
63095;SDS011;49184;55.596;37.770;2022-07-23T00:55:19;17.48;;;8.38;;
63095;SDS011;49184;55.596;37.770;2022-07-23T00:57:46;21.02;;;8.45;;
63095;SDS011;49184;55.596;37.770;2022-07-23T01:00:13;37.85;;;9.38;;
63095;SDS011;49184;55.596;37.770;2022-07-23T01:02:41;25.08;;;8.52;;
63095;SDS011;49184;55.596;37.770;2022-07-23T01:05:08;32.17;;;8.40;;
63095;SDS011;49184;55.596;37.770;2022-07-23T01:07:35;44.42;;;9.43;;
63095;SDS011;49184;55.596;37.770;2022-07-23T01:10:02;22.45;;;8.68;;
63095;SDS011;49184;55.596;37.770;2022-07-23T01:12:29;28.73;;;9.48;;
63095;SDS011;49184;55.596;37.770;2022-07-23T01:14:57;16.35;;;8.55;;
63095;SDS011;49184;55.596;37.770;2022-07-23T01:17:30;15.73;;;7.65;;
63095;SDS011;49184;55.596;37.770;2022-07-23T01:19:56;22.30;;;8.50;;
63095;SDS011;49184;55.596;37.770;2022-07-23T01:22:22;15.07;;;7.72;;
63095;SDS011;49184;55.596;37.770;2022-07-23T01:24:54;26.60;;;8.13;;
63095;SDS011;49184;55.596;37.770;2022-07-23T01:27:24;22.38;;;8.23;;
63095;SDS011;49184;55.596;37.770;2022-07-23T01:29:55;28.05;;;8.80;;
63095;SDS011;49184;55.596;37.770;2022-07-23T01:32:25;19.48;;;8.15;;
63095;SDS011;49184;55.596;37.770;2022-07-23T01:34:51;15.65;;;7.85;;
63095;SDS011;49184;55.596;37.770;2022-07-23T01:37:18;18.67;;;8.20;;
63095;SDS011;49184;55.596;37.770;2022-07-23T01:39:48;32.80;;;9.00;;
63095;SDS011;49184;55.596;37.770;2022-07-23T01:42:14;20.52;;;8.57;;
63095;SDS011;49184;55.596;37.770;2022-07-23T01:47:12;18.73;;;8.18;;
63095;SDS011;49184;55.596;37.770;2022-07-23T01:49:41;21.95;;;8.57;;
63095;SDS011;49184;55.596;37.770;2022-07-23T01:52:39;21.80;;;8.77;;
63095;SDS011;49184;55.596;37.770;2022-07-23T01:55:07;20.23;;;9.00;;
63095;SDS011;49184;55.596;37.770;2022-07-23T01:57:36;18.40;;;8.63;;
63095;SDS011;49184;55.596;37.770;2022-07-23T02:00:03;23.92;;;9.18;;
63095;SDS011;49184;55.596;37.770;2022-07-23T02:02:39;21.10;;;8.60;;
63095;SDS011;49184;55.596;37.770;2022-07-23T02:07:33;20.63;;;9.30;;
63095;SDS011;49184;55.596;37.770;2022-07-23T02:10:06;13.50;;;8.57;;
63095;SDS011;49184;55.596;37.770;2022-07-23T02:15:19;33.13;;;10.25;;
63095;SDS011;49184;55.596;37.770;2022-07-23T02:17:45;20.45;;;9.07;;
63095;SDS011;49184;55.596;37.770;2022-07-23T02:20:11;22.30;;;9.25;;
63095;SDS011;49184;55.596;37.770;2022-07-23T02:22:38;18.52;;;9.07;;
63095;SDS011;49184;55.596;37.770;2022-07-23T02:25:05;20.13;;;9.15;;
63095;SDS011;49184;55.596;37.770;2022-07-23T02:27:34;14.55;;;9.20;;
63095;SDS011;49184;55.596;37.770;2022-07-23T02:30:15;22.75;;;9.40;;
63095;SDS011;49184;55.596;37.770;2022-07-23T02:32:42;19.45;;;9.93;;
63095;SDS011;49184;55.596;37.770;2022-07-23T02:35:10;17.88;;;9.55;;
63095;SDS011;49184;55.596;37.770;2022-07-23T02:40:29;19.77;;;9.95;;
63095;SDS011;49184;55.596;37.770;2022-07-23T02:42:56;30.90;;;10.98;;
63095;SDS011;49184;55.596;37.770;2022-07-23T02:45:23;25.77;;;10.48;;
63095;SDS011;49184;55.596;37.770;2022-07-23T02:47:50;17.30;;;11.02;;
63095;SDS011;49184;55.596;37.770;2022-07-23T02:50:20;36.28;;;11.32;;
63095;SDS011;49184;55.596;37.770;2022-07-23T02:52:47;35.60;;;10.80;;
63095;SDS011;49184;55.596;37.770;2022-07-23T02:55:13;32.33;;;10.75;;
63095;SDS011;49184;55.596;37.770;2022-07-23T02:57:39;23.67;;;10.98;;
63095;SDS011;49184;55.596;37.770;2022-07-23T03:00:06;22.63;;;10.73;;
63095;SDS011;49184;55.596;37.770;2022-07-23T03:02:33;24.52;;;10.95;;
63095;SDS011;49184;55.596;37.770;2022-07-23T03:04:59;23.27;;;10.88;;
63095;SDS011;49184;55.596;37.770;2022-07-23T03:07:26;23.00;;;10.02;;
63095;SDS011;49184;55.596;37.770;2022-07-23T03:09:53;22.23;;;10.65;;
63095;SDS011;49184;55.596;37.770;2022-07-23T03:12:28;26.45;;;10.75;;
63095;SDS011;49184;55.596;37.770;2022-07-23T03:14:54;26.27;;;11.23;;
63095;SDS011;49184;55.596;37.770;2022-07-23T03:17:21;25.33;;;11.18;;
63095;SDS011;49184;55.596;37.770;2022-07-23T03:19:47;22.02;;;10.93;;
63095;SDS011;49184;55.596;37.770;2022-07-23T03:22:13;23.90;;;11.32;;
63095;SDS011;49184;55.596;37.770;2022-07-23T03:24:40;18.85;;;11.20;;
63095;SDS011;49184;55.596;37.770;2022-07-23T03:27:28;25.75;;;10.85;;
63095;SDS011;49184;55.596;37.770;2022-07-23T03:29:57;23.52;;;11.68;;
63095;SDS011;49184;55.596;37.770;2022-07-23T03:32:24;20.35;;;10.82;;
63095;SDS011;49184;55.596;37.770;2022-07-23T03:37:23;31.63;;;11.93;;
63095;SDS011;49184;55.596;37.770;2022-07-23T03:39:50;29.17;;;11.95;;
63095;SDS011;49184;55.596;37.770;2022-07-23T03:42:17;22.13;;;11.52;;
63095;SDS011;49184;55.596;37.770;2022-07-23T03:44:45;24.65;;;12.50;;
63095;SDS011;49184;55.596;37.770;2022-07-23T03:47:12;24.75;;;12.38;;
63095;SDS011;49184;55.596;37.770;2022-07-23T03:49:38;29.48;;;11.93;;
63095;SDS011;49184;55.596;37.770;2022-07-23T03:52:04;24.48;;;12.25;;
63095;SDS011;49184;55.596;37.770;2022-07-23T03:54:34;27.00;;;11.55;;
63095;SDS011;49184;55.596;37.770;2022-07-23T03:57:01;25.50;;;11.88;;
63095;SDS011;49184;55.596;37.770;2022-07-23T03:59:31;27.25;;;12.13;;
63095;SDS011;49184;55.596;37.770;2022-07-23T04:02:04;30.58;;;13.13;;
63095;SDS011;49184;55.596;37.770;2022-07-23T04:04:34;34.60;;;12.65;;
63095;SDS011;49184;55.596;37.770;2022-07-23T04:07:00;28.65;;;13.15;;
63095;SDS011;49184;55.596;37.770;2022-07-23T04:09:27;31.83;;;12.38;;
63095;SDS011;49184;55.596;37.770;2022-07-23T04:12:09;32.63;;;13.40;;
63095;SDS011;49184;55.596;37.770;2022-07-23T04:14:36;29.00;;;12.75;;
63095;SDS011;49184;55.596;37.770;2022-07-23T04:17:40;30.10;;;13.18;;
63095;SDS011;49184;55.596;37.770;2022-07-23T04:20:06;29.30;;;12.60;;
63095;SDS011;49184;55.596;37.770;2022-07-23T04:22:45;146.15;;;19.17;;
63095;SDS011;49184;55.596;37.770;2022-07-23T04:28:05;29.92;;;14.35;;
63095;SDS011;49184;55.596;37.770;2022-07-23T04:30:31;44.65;;;14.43;;
63095;SDS011;49184;55.596;37.770;2022-07-23T04:33:01;45.25;;;14.85;;
63095;SDS011;49184;55.596;37.770;2022-07-23T04:35:31;42.88;;;15.23;;
63095;SDS011;49184;55.596;37.770;2022-07-23T04:38:11;34.40;;;14.38;;
63095;SDS011;49184;55.596;37.770;2022-07-23T04:40:39;33.65;;;14.80;;
63095;SDS011;49184;55.596;37.770;2022-07-23T04:43:05;37.83;;;14.27;;
63095;SDS011;49184;55.596;37.770;2022-07-23T04:45:38;59.80;;;16.80;;
63095;SDS011;49184;55.596;37.770;2022-07-23T04:48:17;36.00;;;14.57;;
63095;SDS011;49184;55.596;37.770;2022-07-23T04:50:44;32.33;;;14.82;;
63095;SDS011;49184;55.596;37.770;2022-07-23T04:53:29;33.97;;;14.25;;
63095;SDS011;49184;55.596;37.770;2022-07-23T04:56:03;40.97;;;15.25;;
63095;SDS011;49184;55.596;37.770;2022-07-23T04:58:34;52.97;;;15.90;;
63095;SDS011;49184;55.596;37.770;2022-07-23T05:04:36;42.70;;;15.02;;
63095;SDS011;49184;55.596;37.770;2022-07-23T05:07:05;36.97;;;14.55;;
63095;SDS011;49184;55.596;37.770;2022-07-23T05:09:33;38.55;;;15.07;;
63095;SDS011;49184;55.596;37.770;2022-07-23T05:11:59;36.38;;;14.25;;
63095;SDS011;49184;55.596;37.770;2022-07-23T05:14:27;35.95;;;15.30;;
63095;SDS011;49184;55.596;37.770;2022-07-23T05:16:53;41.85;;;15.30;;
63095;SDS011;49184;55.596;37.770;2022-07-23T05:19:22;46.97;;;17.00;;
63095;SDS011;49184;55.596;37.770;2022-07-23T05:21:48;47.20;;;15.52;;
63095;SDS011;49184;55.596;37.770;2022-07-23T05:24:15;43.78;;;14.75;;
63095;SDS011;49184;55.596;37.770;2022-07-23T05:26:41;40.40;;;15.82;;
63095;SDS011;49184;55.596;37.770;2022-07-23T05:29:09;61.78;;;18.67;;
63095;SDS011;49184;55.596;37.770;2022-07-23T05:31:50;102.53;;;32.40;;
63095;SDS011;49184;55.596;37.770;2022-07-23T05:34:20;46.47;;;17.65;;
63095;SDS011;49184;55.596;37.770;2022-07-23T05:36:56;182.05;;;25.15;;
63095;SDS011;49184;55.596;37.770;2022-07-23T05:42:13;66.40;;;17.30;;
63095;SDS011;49184;55.596;37.770;2022-07-23T05:47:07;72.63;;;19.70;;
63095;SDS011;49184;55.596;37.770;2022-07-23T05:49:33;52.45;;;17.25;;
63095;SDS011;49184;55.596;37.770;2022-07-23T05:52:29;44.00;;;16.33;;
63095;SDS011;49184;55.596;37.770;2022-07-23T05:55:18;56.40;;;18.52;;
63095;SDS011;49184;55.596;37.770;2022-07-23T05:57:55;47.92;;;16.25;;
63095;SDS011;49184;55.596;37.770;2022-07-23T06:07:38;52.28;;;17.30;;
63095;SDS011;49184;55.596;37.770;2022-07-23T06:10:06;62.97;;;16.88;;
63095;SDS011;49184;55.596;37.770;2022-07-23T06:12:33;97.45;;;19.98;;
63095;SDS011;49184;55.596;37.770;2022-07-23T06:14:59;40.67;;;16.40;;
63095;SDS011;49184;55.596;37.770;2022-07-23T06:17:26;51.83;;;15.20;;
63095;SDS011;49184;55.596;37.770;2022-07-23T06:19:53;66.45;;;17.95;;
63095;SDS011;49184;55.596;37.770;2022-07-23T06:22:38;78.18;;;17.13;;
63095;SDS011;49184;55.596;37.770;2022-07-23T06:25:05;47.10;;;14.38;;
63095;SDS011;49184;55.596;37.770;2022-07-23T06:27:53;41.40;;;15.27;;
63095;SDS011;49184;55.596;37.770;2022-07-23T06:30:19;54.05;;;16.20;;
63095;SDS011;49184;55.596;37.770;2022-07-23T06:32:46;82.18;;;17.88;;
63095;SDS011;49184;55.596;37.770;2022-07-23T06:35:14;77.78;;;18.58;;
63095;SDS011;49184;55.596;37.770;2022-07-23T06:37:41;46.53;;;17.23;;
63095;SDS011;49184;55.596;37.770;2022-07-23T06:40:08;50.20;;;17.10;;
63095;SDS011;49184;55.596;37.770;2022-07-23T06:42:36;47.92;;;15.90;;
63095;SDS011;49184;55.596;37.770;2022-07-23T06:48:01;34.92;;;14.75;;
63095;SDS011;49184;55.596;37.770;2022-07-23T06:50:28;45.97;;;15.52;;
63095;SDS011;49184;55.596;37.770;2022-07-23T06:52:55;65.88;;;16.00;;
63095;SDS011;49184;55.596;37.770;2022-07-23T06:55:22;64.40;;;16.05;;
63095;SDS011;49184;55.596;37.770;2022-07-23T06:57:48;62.17;;;16.45;;
63095;SDS011;49184;55.596;37.770;2022-07-23T07:00:15;84.47;;;17.10;;
63095;SDS011;49184;55.596;37.770;2022-07-23T07:02:42;99.38;;;19.23;;
63095;SDS011;49184;55.596;37.770;2022-07-23T07:05:17;127.97;;;22.58;;
63095;SDS011;49184;55.596;37.770;2022-07-23T07:07:50;43.22;;;15.18;;
63095;SDS011;49184;55.596;37.770;2022-07-23T07:13:34;113.60;;;22.42;;
63095;SDS011;49184;55.596;37.770;2022-07-23T07:16:00;33.80;;;13.68;;
63095;SDS011;49184;55.596;37.770;2022-07-23T07:18:26;43.05;;;14.45;;
63095;SDS011;49184;55.596;37.770;2022-07-23T07:26:16;54.53;;;15.57;;
63095;SDS011;49184;55.596;37.770;2022-07-23T07:31:43;47.45;;;14.82;;
63095;SDS011;49184;55.596;37.770;2022-07-23T07:34:09;51.03;;;15.40;;
63095;SDS011;49184;55.596;37.770;2022-07-23T07:36:50;61.38;;;17.13;;
63095;SDS011;49184;55.596;37.770;2022-07-23T07:42:49;62.35;;;16.67;;
63095;SDS011;49184;55.596;37.770;2022-07-23T07:45:20;56.05;;;17.00;;
63095;SDS011;49184;55.596;37.770;2022-07-23T07:47:47;67.63;;;16.85;;
63095;SDS011;49184;55.596;37.770;2022-07-23T07:50:19;61.47;;;16.95;;
63095;SDS011;49184;55.596;37.770;2022-07-23T07:52:46;48.35;;;15.10;;
63095;SDS011;49184;55.596;37.770;2022-07-23T07:55:13;41.80;;;15.52;;
63095;SDS011;49184;55.596;37.770;2022-07-23T07:58:02;33.85;;;13.43;;
63095;SDS011;49184;55.596;37.770;2022-07-23T08:00:28;44.38;;;16.25;;
63095;SDS011;49184;55.596;37.770;2022-07-23T08:02:55;59.20;;;16.13;;
63095;SDS011;49184;55.596;37.770;2022-07-23T08:05:22;67.85;;;16.35;;
63095;SDS011;49184;55.596;37.770;2022-07-23T08:07:49;41.25;;;15.68;;
63095;SDS011;49184;55.596;37.770;2022-07-23T08:10:21;38.25;;;14.77;;
63095;SDS011;49184;55.596;37.770;2022-07-23T08:12:50;37.38;;;15.20;;
63095;SDS011;49184;55.596;37.770;2022-07-23T08:15:19;43.10;;;16.50;;
63095;SDS011;49184;55.596;37.770;2022-07-23T08:17:47;67.72;;;24.98;;
63095;SDS011;49184;55.596;37.770;2022-07-23T08:20:15;41.47;;;16.83;;
63095;SDS011;49184;55.596;37.770;2022-07-23T08:22:43;63.85;;;17.52;;
63095;SDS011;49184;55.596;37.770;2022-07-23T08:25:19;55.38;;;17.52;;
63095;SDS011;49184;55.596;37.770;2022-07-23T08:27:56;64.78;;;17.55;;
63095;SDS011;49184;55.596;37.770;2022-07-23T08:30:24;34.78;;;15.80;;
63095;SDS011;49184;55.596;37.770;2022-07-23T08:32:55;36.10;;;16.15;;
63095;SDS011;49184;55.596;37.770;2022-07-23T08:35:29;49.42;;;18.77;;
63095;SDS011;49184;55.596;37.770;2022-07-23T08:40:52;79.95;;;19.13;;
63095;SDS011;49184;55.596;37.770;2022-07-23T08:43:24;59.63;;;18.55;;
63095;SDS011;49184;55.596;37.770;2022-07-23T08:45:52;39.55;;;15.75;;
63095;SDS011;49184;55.596;37.770;2022-07-23T08:48:23;96.20;;;20.38;;
63095;SDS011;49184;55.596;37.770;2022-07-23T08:50:55;48.15;;;16.88;;
63095;SDS011;49184;55.596;37.770;2022-07-23T08:53:24;47.65;;;16.55;;
63095;SDS011;49184;55.596;37.770;2022-07-23T08:55:53;32.45;;;15.70;;
63095;SDS011;49184;55.596;37.770;2022-07-23T08:58:22;43.72;;;16.33;;
63095;SDS011;49184;55.596;37.770;2022-07-23T09:00:49;46.97;;;16.50;;
63095;SDS011;49184;55.596;37.770;2022-07-23T09:03:20;78.80;;;19.20;;
63095;SDS011;49184;55.596;37.770;2022-07-23T09:05:52;47.28;;;16.13;;
63095;SDS011;49184;55.596;37.770;2022-07-23T09:08:22;62.40;;;16.70;;
63095;SDS011;49184;55.596;37.770;2022-07-23T09:11:07;192.02;;;30.92;;
63095;SDS011;49184;55.596;37.770;2022-07-23T09:16:17;69.35;;;20.33;;
63095;SDS011;49184;55.596;37.770;2022-07-23T09:18:48;50.13;;;18.17;;
63095;SDS011;49184;55.596;37.770;2022-07-23T09:23:59;30.10;;;14.30;;
63095;SDS011;49184;55.596;37.770;2022-07-23T09:29:29;30.38;;;15.38;;
63095;SDS011;49184;55.596;37.770;2022-07-23T09:31:59;33.78;;;16.23;;
63095;SDS011;49184;55.596;37.770;2022-07-23T09:34:28;48.45;;;17.85;;
63095;SDS011;49184;55.596;37.770;2022-07-23T09:37:19;28.67;;;15.15;;
63095;SDS011;49184;55.596;37.770;2022-07-23T09:39:46;49.60;;;17.92;;
63095;SDS011;49184;55.596;37.770;2022-07-23T09:45:23;38.47;;;15.15;;
63095;SDS011;49184;55.596;37.770;2022-07-23T09:47:49;88.65;;;18.75;;
63095;SDS011;49184;55.596;37.770;2022-07-23T09:50:15;38.28;;;15.95;;
63095;SDS011;49184;55.596;37.770;2022-07-23T09:52:46;26.25;;;15.65;;
63095;SDS011;49184;55.596;37.770;2022-07-23T09:55:14;24.50;;;16.13;;
63095;SDS011;49184;55.596;37.770;2022-07-23T09:57:41;38.22;;;15.80;;
63095;SDS011;49184;55.596;37.770;2022-07-23T10:00:11;32.03;;;15.43;;
63095;SDS011;49184;55.596;37.770;2022-07-23T10:02:38;32.40;;;15.85;;
63095;SDS011;49184;55.596;37.770;2022-07-23T10:05:24;31.08;;;16.10;;
63095;SDS011;49184;55.596;37.770;2022-07-23T10:08:11;32.00;;;16.17;;
63095;SDS011;49184;55.596;37.770;2022-07-23T10:10:56;23.58;;;15.40;;
63095;SDS011;49184;55.596;37.770;2022-07-23T10:13:39;38.58;;;16.45;;
63095;SDS011;49184;55.596;37.770;2022-07-23T10:19:54;26.23;;;15.55;;
63095;SDS011;49184;55.596;37.770;2022-07-23T10:22:24;30.73;;;15.07;;
63095;SDS011;49184;55.596;37.770;2022-07-23T10:31:06;30.85;;;16.45;;
63095;SDS011;49184;55.596;37.770;2022-07-23T10:36:44;28.35;;;16.17;;
63095;SDS011;49184;55.596;37.770;2022-07-23T10:39:25;30.83;;;15.80;;
63095;SDS011;49184;55.596;37.770;2022-07-23T10:42:16;24.20;;;15.45;;
63095;SDS011;49184;55.596;37.770;2022-07-23T10:44:45;30.05;;;16.35;;
63095;SDS011;49184;55.596;37.770;2022-07-23T10:47:29;36.58;;;17.15;;
63095;SDS011;49184;55.596;37.770;2022-07-23T10:50:29;33.72;;;18.25;;
63095;SDS011;49184;55.596;37.770;2022-07-23T10:53:12;30.52;;;16.55;;
63095;SDS011;49184;55.596;37.770;2022-07-23T10:55:42;30.23;;;15.90;;
63095;SDS011;49184;55.596;37.770;2022-07-23T10:58:10;28.33;;;15.98;;
63095;SDS011;49184;55.596;37.770;2022-07-23T11:00:42;32.03;;;15.27;;
63095;SDS011;49184;55.596;37.770;2022-07-23T11:03:42;27.92;;;15.27;;
63095;SDS011;49184;55.596;37.770;2022-07-23T11:06:03;37.95;;;16.60;;
63095;SDS011;49184;55.596;37.770;2022-07-23T11:08:30;31.95;;;16.95;;
63095;SDS011;49184;55.596;37.770;2022-07-23T11:13:31;43.10;;;16.15;;
63095;SDS011;49184;55.596;37.770;2022-07-23T11:26:42;35.25;;;15.82;;
63095;SDS011;49184;55.596;37.770;2022-07-23T11:37:08;242.55;;;38.97;;
63095;SDS011;49184;55.596;37.770;2022-07-23T11:39:38;189.82;;;30.02;;
63095;SDS011;49184;55.596;37.770;2022-07-23T11:42:05;53.17;;;17.08;;
63095;SDS011;49184;55.596;37.770;2022-07-23T11:44:37;758.38;;;62.20;;
63095;SDS011;49184;55.596;37.770;2022-07-23T11:47:09;133.98;;;25.23;;
63095;SDS011;49184;55.596;37.770;2022-07-23T11:49:41;69.40;;;20.42;;
63095;SDS011;49184;55.596;37.770;2022-07-23T11:52:19;57.78;;;19.73;;
63095;SDS011;49184;55.596;37.770;2022-07-23T11:55:05;86.75;;;20.27;;
63095;SDS011;49184;55.596;37.770;2022-07-23T11:57:37;63.55;;;19.10;;
63095;SDS011;49184;55.596;37.770;2022-07-23T12:00:07;72.57;;;22.88;;
63095;SDS011;49184;55.596;37.770;2022-07-23T12:02:46;188.23;;;36.42;;
63095;SDS011;49184;55.596;37.770;2022-07-23T12:05:19;150.63;;;30.95;;
63095;SDS011;49184;55.596;37.770;2022-07-23T12:07:48;175.35;;;35.22;;
63095;SDS011;49184;55.596;37.770;2022-07-23T12:12:53;141.65;;;38.22;;
63095;SDS011;49184;55.596;37.770;2022-07-23T12:15:29;119.40;;;26.27;;
63095;SDS011;49184;55.596;37.770;2022-07-23T12:17:59;62.00;;;19.40;;
63095;SDS011;49184;55.596;37.770;2022-07-23T12:20:28;34.70;;;16.38;;
63095;SDS011;49184;55.596;37.770;2022-07-23T12:23:01;69.72;;;19.52;;
63095;SDS011;49184;55.596;37.770;2022-07-23T12:25:32;44.78;;;16.88;;
63095;SDS011;49184;55.596;37.770;2022-07-23T12:28:22;151.50;;;26.50;;
63095;SDS011;49184;55.596;37.770;2022-07-23T12:30:54;160.65;;;27.60;;
63095;SDS011;49184;55.596;37.770;2022-07-23T12:33:26;138.70;;;25.60;;
63095;SDS011;49184;55.596;37.770;2022-07-23T12:35:55;57.72;;;17.35;;
63095;SDS011;49184;55.596;37.770;2022-07-23T12:38:25;245.65;;;37.80;;
63095;SDS011;49184;55.596;37.770;2022-07-23T12:40:56;288.10;;;41.58;;
63095;SDS011;49184;55.596;37.770;2022-07-23T12:43:29;224.18;;;33.63;;
63095;SDS011;49184;55.596;37.770;2022-07-23T12:46:11;148.68;;;26.52;;
63095;SDS011;49184;55.596;37.770;2022-07-23T12:51:27;48.47;;;18.05;;
63095;SDS011;49184;55.596;37.770;2022-07-23T12:54:06;162.13;;;29.45;;
63095;SDS011;49184;55.596;37.770;2022-07-23T12:56:39;70.05;;;18.65;;
63095;SDS011;49184;55.596;37.770;2022-07-23T12:59:10;306.83;;;39.50;;
63095;SDS011;49184;55.596;37.770;2022-07-23T13:01:39;133.65;;;26.80;;
63095;SDS011;49184;55.596;37.770;2022-07-23T13:04:09;39.72;;;16.80;;
63095;SDS011;49184;55.596;37.770;2022-07-23T13:06:40;49.67;;;18.20;;
63095;SDS011;49184;55.596;37.770;2022-07-23T13:09:10;36.55;;;16.33;;
63095;SDS011;49184;55.596;37.770;2022-07-23T13:11:39;74.43;;;19.52;;
63095;SDS011;49184;55.596;37.770;2022-07-23T13:14:05;55.47;;;18.67;;
63095;SDS011;49184;55.596;37.770;2022-07-23T13:16:32;28.58;;;16.00;;
63095;SDS011;49184;55.596;37.770;2022-07-23T13:18:59;45.67;;;18.42;;
63095;SDS011;49184;55.596;37.770;2022-07-23T13:21:27;48.00;;;17.30;;
63095;SDS011;49184;55.596;37.770;2022-07-23T13:23:54;36.28;;;16.13;;
63095;SDS011;49184;55.596;37.770;2022-07-23T13:26:21;41.47;;;16.67;;
63095;SDS011;49184;55.596;37.770;2022-07-23T13:28:47;60.63;;;18.65;;
63095;SDS011;49184;55.596;37.770;2022-07-23T13:31:16;49.38;;;16.85;;
63095;SDS011;49184;55.596;37.770;2022-07-23T13:33:43;56.10;;;16.95;;
63095;SDS011;49184;55.596;37.770;2022-07-23T13:36:10;269.50;;;40.40;;
63095;SDS011;49184;55.596;37.770;2022-07-23T13:38:37;500.58;;;59.28;;
63095;SDS011;49184;55.596;37.770;2022-07-23T13:41:04;185.20;;;29.83;;
63095;SDS011;49184;55.596;37.770;2022-07-23T13:43:31;385.33;;;48.63;;
63095;SDS011;49184;55.596;37.770;2022-07-23T13:45:58;81.22;;;18.27;;
63095;SDS011;49184;55.596;37.770;2022-07-23T13:48:24;287.55;;;39.42;;
63095;SDS011;49184;55.596;37.770;2022-07-23T13:53:18;222.73;;;35.20;;
63095;SDS011;49184;55.596;37.770;2022-07-23T13:55:46;452.02;;;49.78;;
63095;SDS011;49184;55.596;37.770;2022-07-23T13:58:14;70.55;;;19.08;;
63095;SDS011;49184;55.596;37.770;2022-07-23T14:00:44;38.40;;;15.20;;
63095;SDS011;49184;55.596;37.770;2022-07-23T14:03:12;259.50;;;33.47;;
63095;SDS011;49184;55.596;37.770;2022-07-23T14:05:40;59.53;;;17.77;;
63095;SDS011;49184;55.596;37.770;2022-07-23T14:08:07;106.35;;;26.65;;
63095;SDS011;49184;55.596;37.770;2022-07-23T14:10:34;203.15;;;31.65;;
63095;SDS011;49184;55.596;37.770;2022-07-23T14:13:01;90.07;;;20.58;;
63095;SDS011;49184;55.596;37.770;2022-07-23T14:15:27;133.98;;;24.25;;
63095;SDS011;49184;55.596;37.770;2022-07-23T14:17:58;112.25;;;23.88;;
63095;SDS011;49184;55.596;37.770;2022-07-23T14:20:25;104.65;;;21.20;;
63095;SDS011;49184;55.596;37.770;2022-07-23T14:22:51;72.25;;;18.45;;
63095;SDS011;49184;55.596;37.770;2022-07-23T14:25:18;93.20;;;19.45;;
63095;SDS011;49184;55.596;37.770;2022-07-23T14:28:32;150.15;;;25.98;;
63095;SDS011;49184;55.596;37.770;2022-07-23T14:30:59;158.57;;;27.42;;
63095;SDS011;49184;55.596;37.770;2022-07-23T14:33:26;199.13;;;30.50;;
63095;SDS011;49184;55.596;37.770;2022-07-23T14:38:20;326.98;;;57.53;;
63095;SDS011;49184;55.596;37.770;2022-07-23T14:40:46;308.02;;;52.67;;
63095;SDS011;49184;55.596;37.770;2022-07-23T14:43:14;360.55;;;61.47;;
63095;SDS011;49184;55.596;37.770;2022-07-23T14:45:40;311.40;;;47.85;;
63095;SDS011;49184;55.596;37.770;2022-07-23T14:50:33;116.10;;;31.67;;
63095;SDS011;49184;55.596;37.770;2022-07-23T15:02:43;247.32;;;35.88;;
63095;SDS011;49184;55.596;37.770;2022-07-23T15:05:11;231.18;;;34.13;;
63095;SDS011;49184;55.596;37.770;2022-07-23T15:07:38;48.13;;;15.60;;
63095;SDS011;49184;55.596;37.770;2022-07-23T15:10:17;61.58;;;17.42;;
63095;SDS011;49184;55.596;37.770;2022-07-23T15:12:43;240.65;;;37.13;;
63095;SDS011;49184;55.596;37.770;2022-07-23T15:15:09;81.35;;;19.80;;
63095;SDS011;49184;55.596;37.770;2022-07-23T15:17:39;341.80;;;52.63;;
63095;SDS011;49184;55.596;37.770;2022-07-23T15:20:11;213.57;;;35.67;;
63095;SDS011;49184;55.596;37.770;2022-07-23T15:22:38;333.45;;;47.75;;
63095;SDS011;49184;55.596;37.770;2022-07-23T15:25:07;543.45;;;62.20;;
63095;SDS011;49184;55.596;37.770;2022-07-23T15:27:33;425.75;;;49.90;;
63095;SDS011;49184;55.596;37.770;2022-07-23T15:30:00;248.98;;;36.08;;
63095;SDS011;49184;55.596;37.770;2022-07-23T15:32:29;212.00;;;33.65;;
63095;SDS011;49184;55.596;37.770;2022-07-23T15:34:56;305.65;;;51.25;;
63095;SDS011;49184;55.596;37.770;2022-07-23T15:37:24;127.55;;;30.25;;
63095;SDS011;49184;55.596;37.770;2022-07-23T15:39:57;185.73;;;30.30;;
63095;SDS011;49184;55.596;37.770;2022-07-23T15:42:23;178.43;;;30.52;;
63095;SDS011;49184;55.596;37.770;2022-07-23T15:44:51;232.82;;;38.58;;
63095;SDS011;49184;55.596;37.770;2022-07-23T15:47:17;237.75;;;42.78;;
63095;SDS011;49184;55.596;37.770;2022-07-23T15:49:47;165.70;;;43.67;;
63095;SDS011;49184;55.596;37.770;2022-07-23T15:52:13;408.42;;;65.93;;
63095;SDS011;49184;55.596;37.770;2022-07-23T15:54:45;428.92;;;65.43;;
63095;SDS011;49184;55.596;37.770;2022-07-23T15:57:12;351.33;;;57.33;;
63095;SDS011;49184;55.596;37.770;2022-07-23T15:59:46;225.10;;;41.70;;
63095;SDS011;49184;55.596;37.770;2022-07-23T16:02:13;141.20;;;30.90;;
63095;SDS011;49184;55.596;37.770;2022-07-23T16:04:49;193.57;;;34.90;;
63095;SDS011;49184;55.596;37.770;2022-07-23T16:10:21;157.65;;;33.20;;
63095;SDS011;49184;55.596;37.770;2022-07-23T16:12:48;181.25;;;34.60;;
63095;SDS011;49184;55.596;37.770;2022-07-23T16:15:21;158.55;;;31.02;;
63095;SDS011;49184;55.596;37.770;2022-07-23T16:17:53;136.48;;;26.95;;
63095;SDS011;49184;55.596;37.770;2022-07-23T16:20:23;180.95;;;34.80;;
63095;SDS011;49184;55.596;37.770;2022-07-23T16:27:51;241.23;;;46.95;;
63095;SDS011;49184;55.596;37.770;2022-07-23T16:30:18;203.88;;;41.45;;
63095;SDS011;49184;55.596;37.770;2022-07-23T16:35:16;292.52;;;67.57;;
63095;SDS011;49184;55.596;37.770;2022-07-23T16:42:36;224.15;;;37.40;;
63095;SDS011;49184;55.596;37.770;2022-07-23T16:45:05;188.98;;;38.22;;